Time;durP1;ratioP1;P1;durP2;ratioP2;P2;SDS_P1;SDS_P2;PMS_P1;PMS_P2;Temp;Humidity;BMP_temperature;BMP_pressure;BME280_temperature;BME280_humidity;BME280_pressure;Samples;Min_cycle;Max_cycle;Signal;HPM_P1;HPM_P2
2020/12/30 00:01:57;;;;;;;11.00;7.67;;;5.20;99.90;;;;;;5034720;28;20610;-73
2020/12/30 00:04:22;;;;;;;8.60;7.30;;;5.20;99.90;;;;;;5039803;28;20189;-72
2020/12/30 00:06:48;;;;;;;8.20;6.73;;;5.10;99.90;;;;;;5053684;28;20202;-72
2020/12/30 00:09:13;;;;;;;8.00;7.20;;;5.10;99.90;;;;;;5053734;28;20184;-72
2020/12/30 00:11:39;;;;;;;8.60;7.20;;;5.20;99.90;;;;;;5046456;28;20190;-72
2020/12/30 00:14:04;;;;;;;9.40;7.27;;;5.10;99.90;;;;;;5034258;28;20191;-74
2020/12/30 00:16:32;;;;;;;9.83;7.10;;;5.10;99.90;;;;;;5034298;28;20209;-74
2020/12/30 00:18:58;;;;;;;9.27;6.80;;;5.10;99.90;;;;;;5043768;28;20670;-72
2020/12/30 00:21:24;;;;;;;7.93;6.70;;;5.10;99.90;;;;;;5048832;28;20512;-74
2020/12/30 00:23:49;;;;;;;8.53;7.53;;;5.20;99.90;;;;;;5034134;28;20403;-73
2020/12/30 00:26:19;;;;;;;11.60;7.00;;;5.10;99.90;;;;;;5034585;28;20844;-73
2020/12/30 00:28:44;;;;;;;7.63;6.87;;;5.10;99.90;;;;;;5040903;28;20605;-73
2020/12/30 00:31:10;;;;;;;9.20;7.13;;;5.20;99.90;;;;;;5053255;28;20449;-74
2020/12/30 00:33:36;;;;;;;7.97;7.13;;;5.20;99.90;;;;;;5052945;28;20547;-73
2020/12/30 00:36:02;;;;;;;8.40;6.63;;;5.20;99.90;;;;;;5044299;28;20220;-74
2020/12/30 00:38:27;;;;;;;8.50;7.60;;;5.20;99.90;;;;;;5033871;28;20425;-74
2020/12/30 00:40:53;;;;;;;10.03;7.50;;;5.20;99.90;;;;;;5041489;28;20175;-73
2020/12/30 00:43:18;;;;;;;9.93;7.10;;;5.20;99.90;;;;;;5042346;28;20178;-74
2020/12/30 00:45:44;;;;;;;9.67;7.30;;;5.20;99.90;;;;;;5047384;28;20217;-74
2020/12/30 00:48:09;;;;;;;9.90;7.53;;;5.20;99.90;;;;;;5051926;28;20178;-73
2020/12/30 00:50:35;;;;;;;11.57;7.60;;;5.20;99.90;;;;;;5040767;28;20177;-74
2020/12/30 00:53:00;;;;;;;10.07;8.97;;;5.20;99.90;;;;;;5033940;28;20175;-73
2020/12/30 00:55:26;;;;;;;12.27;8.67;;;5.10;99.90;;;;;;5033282;28;20569;-73
2020/12/30 00:57:51;;;;;;;10.90;7.37;;;5.10;99.90;;;;;;5048279;28;20183;-73
2020/12/30 01:00:17;;;;;;;9.63;7.17;;;5.10;99.90;;;;;;5052607;28;20186;-74
2020/12/30 01:02:43;;;;;;;8.77;7.40;;;5.10;99.90;;;;;;5052514;28;20505;-72
2020/12/30 01:05:09;;;;;;;9.00;7.37;;;5.20;99.90;;;;;;5052023;28;20202;-73
2020/12/30 01:07:34;;;;;;;9.30;8.07;;;5.10;99.90;;;;;;5052655;28;20446;-73
2020/12/30 01:10:00;;;;;;;9.20;8.00;;;5.10;99.90;;;;;;5053089;28;20420;-72
2020/12/30 01:12:25;;;;;;;9.77;8.03;;;5.20;99.90;;;;;;5034158;28;20534;-72
2020/12/30 01:14:51;;;;;;;8.03;6.37;;;5.20;99.90;;;;;;5033367;28;20668;-72
2020/12/30 01:17:16;;;;;;;8.47;7.13;;;5.20;99.90;;;;;;5034434;28;20194;-71
2020/12/30 01:19:42;;;;;;;8.33;7.40;;;5.20;99.90;;;;;;5052704;28;20185;-72
2020/12/30 01:22:07;;;;;;;10.03;8.13;;;5.20;99.90;;;;;;5052272;28;20546;-72
2020/12/30 01:24:33;;;;;;;9.97;7.10;;;5.30;99.90;;;;;;5049424;28;20175;-72
2020/12/30 01:26:58;;;;;;;8.60;7.70;;;5.20;99.90;;;;;;5032976;28;20244;-72
2020/12/30 01:29:24;;;;;;;9.10;7.27;;;5.20;99.90;;;;;;5032965;28;20179;-72
2020/12/30 01:31:50;;;;;;;10.07;7.50;;;5.30;99.90;;;;;;5037983;28;20595;-72
2020/12/30 01:34:15;;;;;;;10.77;8.13;;;5.30;99.90;;;;;;5051817;28;20210;-72
2020/12/30 01:36:41;;;;;;;9.03;7.77;;;5.30;99.90;;;;;;5052353;28;20248;-72
2020/12/30 01:39:06;;;;;;;10.03;7.87;;;5.20;99.90;;;;;;5045439;28;20301;-72
2020/12/30 01:41:32;;;;;;;10.43;8.83;;;5.20;99.90;;;;;;5033148;28;20174;-72
2020/12/30 01:44:07;;;;;;;11.33;8.83;;;5.20;99.90;;;;;;5032875;28;20175;-72
2020/12/30 01:46:38;;;;;;;9.13;8.10;;;5.20;99.90;;;;;;5042988;28;20453;-72
2020/12/30 01:49:19;;;;;;;8.87;7.77;;;5.20;99.90;;;;;;5045746;28;20756;-72
2020/12/30 01:51:45;;;;;;;11.00;9.23;;;5.20;99.90;;;;;;5034302;28;20405;-72
2020/12/30 01:54:11;;;;;;;10.40;8.60;;;5.20;99.90;;;;;;5033003;28;20481;-72
2020/12/30 01:56:37;;;;;;;10.73;8.97;;;5.20;99.90;;;;;;5036411;28;20219;-72
2020/12/30 01:59:09;;;;;;;10.93;8.20;;;5.30;99.90;;;;;;5049617;28;20476;-72
2020/12/30 02:01:37;;;;;;;11.57;9.20;;;5.30;99.90;;;;;;5055076;28;20420;-72
2020/12/30 02:04:05;;;;;;;10.50;9.07;;;5.30;99.90;;;;;;5039530;28;20421;-72
2020/12/30 02:06:31;;;;;;;10.53;8.73;;;5.30;99.90;;;;;;5040915;28;20437;-72
2020/12/30 02:08:58;;;;;;;10.90;9.07;;;5.30;99.90;;;;;;5042419;28;20763;-74
2020/12/30 02:11:25;;;;;;;10.77;8.43;;;5.30;99.90;;;;;;5054375;28;20435;-71
2020/12/30 02:14:01;;;;;;;11.30;8.57;;;5.30;99.90;;;;;;5056513;28;20408;-72
2020/12/30 02:16:27;;;;;;;13.03;8.80;;;5.30;99.90;;;;;;5056536;28;20423;-72
2020/12/30 02:18:53;;;;;;;10.57;9.03;;;5.30;99.90;;;;;;5056743;28;20761;-72
2020/12/30 02:21:18;;;;;;;9.47;8.17;;;5.30;99.90;;;;;;5056473;28;20487;-71
2020/12/30 02:23:46;;;;;;;10.63;9.07;;;5.30;99.90;;;;;;5053998;28;20194;-73
2020/12/30 02:26:12;;;;;;;10.20;9.20;;;5.30;99.90;;;;;;5055870;28;20197;-71
2020/12/30 02:28:37;;;;;;;11.33;9.40;;;5.30;99.90;;;;;;5053732;28;20523;-72
2020/12/30 02:31:03;;;;;;;11.60;10.37;;;5.30;99.90;;;;;;5036350;28;20253;-73
2020/12/30 02:33:28;;;;;;;11.77;10.00;;;5.30;99.90;;;;;;5036191;28;20277;-73
2020/12/30 02:35:54;;;;;;;12.10;9.47;;;5.20;99.90;;;;;;5038447;28;20210;-73
2020/12/30 02:38:22;;;;;;;14.13;10.37;;;5.30;99.90;;;;;;5055445;28;20193;-73
2020/12/30 02:40:48;;;;;;;11.27;9.70;;;5.20;99.90;;;;;;5044143;28;20216;-73
2020/12/30 02:43:15;;;;;;;13.50;9.53;;;5.10;99.90;;;;;;5040087;28;20416;-73
2020/12/30 02:45:41;;;;;;;12.20;9.47;;;5.10;99.90;;;;;;5054817;28;20205;-73
2020/12/30 02:48:07;;;;;;;12.13;9.73;;;5.10;99.90;;;;;;5055335;28;20764;-73
2020/12/30 02:50:32;;;;;;;11.63;9.70;;;5.10;99.90;;;;;;5055082;28;20672;-73
2020/12/30 02:52:58;;;;;;;12.80;9.50;;;5.10;99.90;;;;;;5055238;28;20427;-73
2020/12/30 02:55:23;;;;;;;10.50;8.93;;;5.10;99.90;;;;;;5052464;28;20218;-73
2020/12/30 02:57:49;;;;;;;9.70;8.70;;;5.10;99.90;;;;;;5046515;28;20597;-73
2020/12/30 03:00:14;;;;;;;12.93;10.17;;;5.10;99.90;;;;;;5036183;28;20563;-73
2020/12/30 03:02:40;;;;;;;13.40;10.60;;;5.10;99.90;;;;;;5036146;28;20198;-73
2020/12/30 03:05:05;;;;;;;15.30;10.80;;;5.00;99.90;;;;;;5046208;28;20187;-73
2020/12/30 03:07:31;;;;;;;11.97;9.80;;;5.00;99.90;;;;;;5055029;28;20182;-73
2020/12/30 03:09:56;;;;;;;15.53;10.70;;;5.00;99.90;;;;;;5054305;28;20586;-72
2020/12/30 03:12:22;;;;;;;15.20;11.70;;;5.10;99.90;;;;;;5040145;28;20185;-74
2020/12/30 03:14:47;;;;;;;15.00;12.30;;;5.10;99.90;;;;;;5034891;28;20219;-74
2020/12/30 03:17:13;;;;;;;20.00;11.53;;;5.10;99.90;;;;;;5035511;28;20612;-72
2020/12/30 03:19:38;;;;;;;17.70;11.33;;;5.20;99.90;;;;;;5050078;28;20185;-73
2020/12/30 03:22:04;;;;;;;20.07;12.50;;;5.10;99.90;;;;;;5044398;28;20255;-72
2020/12/30 03:24:29;;;;;;;14.73;12.10;;;5.10;99.90;;;;;;5035054;28;20191;-72
2020/12/30 03:26:56;;;;;;;16.57;11.10;;;5.10;99.90;;;;;;5035184;28;20194;-72
2020/12/30 03:29:22;;;;;;;15.17;11.63;;;5.10;99.90;;;;;;5034908;28;20684;-72
2020/12/30 03:31:47;;;;;;;19.40;12.17;;;5.10;99.90;;;;;;5034904;28;20423;-72
2020/12/30 03:34:13;;;;;;;15.50;11.43;;;5.10;99.90;;;;;;5053012;28;20200;-72
2020/12/30 03:36:38;;;;;;;16.90;12.23;;;5.00;99.90;;;;;;5054505;28;20275;-72
2020/12/30 03:39:05;;;;;;;16.30;12.00;;;4.90;99.90;;;;;;5045707;28;20180;-72
2020/12/30 03:41:30;;;;;;;14.90;11.37;;;4.90;99.90;;;;;;5054238;28;20177;-72
2020/12/30 03:43:56;;;;;;;17.93;12.03;;;4.80;99.90;;;;;;5053512;28;20421;-72
2020/12/30 03:46:22;;;;;;;15.60;11.90;;;4.80;99.90;;;;;;5050662;28;20290;-72
2020/12/30 03:48:47;;;;;;;14.90;12.27;;;4.90;99.90;;;;;;5034696;28;20420;-72
2020/12/30 03:51:13;;;;;;;15.80;12.60;;;4.90;99.90;;;;;;5052592;28;20185;-72
2020/12/30 03:53:38;;;;;;;17.03;11.97;;;4.90;99.90;;;;;;5053793;28;20247;-72
2020/12/30 03:56:04;;;;;;;14.20;11.70;;;4.80;99.90;;;;;;5052871;28;20210;-72
2020/12/30 03:58:29;;;;;;;16.50;12.57;;;4.80;99.90;;;;;;5033274;28;20231;-72
2020/12/30 04:00:55;;;;;;;15.20;12.40;;;4.70;99.90;;;;;;5034494;28;20186;-72
2020/12/30 04:03:20;;;;;;;16.30;12.60;;;4.70;99.90;;;;;;5036590;28;20208;-72
2020/12/30 04:05:46;;;;;;;17.13;12.30;;;4.60;99.90;;;;;;5053447;28;20250;-72
2020/12/30 04:08:11;;;;;;;15.77;11.70;;;4.60;99.90;;;;;;5053266;28;20233;-72
2020/12/30 04:10:37;;;;;;;14.90;11.87;;;4.60;99.90;;;;;;5053296;28;20283;-72
2020/12/30 04:13:03;;;;;;;21.30;13.37;;;4.50;99.90;;;;;;5053422;28;20703;-72
2020/12/30 04:15:28;;;;;;;16.97;11.53;;;4.40;99.90;;;;;;5041520;28;20222;-72
2020/12/30 04:17:54;;;;;;;18.30;14.40;;;4.40;99.90;;;;;;5040449;28;20507;-73
2020/12/30 04:20:19;;;;;;;19.13;14.17;;;4.40;99.90;;;;;;5053061;28;20319;-72
2020/12/30 04:22:45;;;;;;;18.17;13.60;;;4.30;99.90;;;;;;5052911;28;20203;-72
2020/12/30 04:25:11;;;;;;;17.90;12.77;;;4.30;99.90;;;;;;5044459;28;20518;-72
2020/12/30 04:27:36;;;;;;;15.40;12.13;;;4.20;99.90;;;;;;5045561;28;20659;-72
2020/12/30 04:30:03;;;;;;;17.97;12.63;;;4.20;99.90;;;;;;5046031;28;20914;-72
2020/12/30 04:32:29;;;;;;;18.20;13.37;;;4.20;99.90;;;;;;5034566;28;20251;-72
2020/12/30 04:34:54;;;;;;;21.63;13.27;;;4.20;99.90;;;;;;5032247;28;20816;-72
2020/12/30 04:37:20;;;;;;;17.80;13.40;;;4.10;99.90;;;;;;5033787;28;20206;-72
2020/12/30 04:39:46;;;;;;;21.30;14.10;;;4.10;99.90;;;;;;5045788;28;20196;-72
2020/12/30 04:42:12;;;;;;;15.10;12.23;;;4.10;99.90;;;;;;5044855;28;20186;-72
2020/12/30 04:44:42;;;;;;;23.43;13.67;;;4.10;99.90;;;;;;5041492;28;20183;-72
2020/12/30 04:47:09;;;;;;;23.83;13.27;;;4.10;99.90;;;;;;5048676;28;20590;-72
2020/12/30 04:49:34;;;;;;;19.77;13.53;;;4.10;99.90;;;;;;5052868;28;20451;-72
2020/12/30 04:52:00;;;;;;;20.40;13.60;;;4.10;99.90;;;;;;5052810;28;20433;-71
2020/12/30 04:54:26;;;;;;;22.53;14.77;;;4.10;99.90;;;;;;5035257;28;20204;-72
2020/12/30 04:57:02;;;;;;;18.70;13.27;;;4.10;99.90;;;;;;5033841;28;20257;-71
2020/12/30 04:59:30;;;;;;;19.10;14.23;;;4.00;99.90;;;;;;5034571;28;20691;-71
2020/12/30 05:02:05;;;;;;;20.10;14.23;;;4.00;99.90;;;;;;5052690;28;20502;-71
2020/12/30 05:04:32;;;;;;;19.70;14.97;;;4.00;99.90;;;;;;5052572;28;20451;-71
2020/12/30 05:07:15;;;;;;;20.60;15.30;;;4.00;99.90;;;;;;5047791;28;20507;-71
2020/12/30 05:09:43;;;;;;;18.33;13.87;;;4.00;99.90;;;;;;5044124;28;20422;-72
2020/12/30 05:12:16;;;;;;;18.83;15.00;;;3.90;99.90;;;;;;5053372;28;20761;-73
2020/12/30 05:14:43;;;;;;;23.50;14.60;;;3.90;99.90;;;;;;5041784;28;20480;-71
2020/12/30 05:17:09;;;;;;;23.00;15.27;;;3.90;99.90;;;;;;5037539;28;20810;-72
2020/12/30 05:19:36;;;;;;;20.50;14.63;;;3.90;99.90;;;;;;5045247;28;20421;-72
2020/12/30 05:22:02;;;;;;;19.70;14.03;;;3.90;99.90;;;;;;5049305;28;20487;-72
2020/12/30 05:24:28;;;;;;;18.70;13.97;;;4.00;99.90;;;;;;5046530;28;20421;-71
2020/12/30 05:26:55;;;;;;;19.73;13.43;;;3.90;99.90;;;;;;5050957;28;20448;-71
2020/12/30 05:29:23;;;;;;;20.63;16.20;;;3.90;99.90;;;;;;5048017;28;20941;-72
2020/12/30 05:31:50;;;;;;;17.10;12.67;;;3.80;99.90;;;;;;5065253;28;20424;-71
2020/12/30 05:34:19;;;;;;;20.97;13.07;;;3.90;99.90;;;;;;5050585;28;20468;-71
2020/12/30 05:36:47;;;;;;;18.60;13.53;;;3.90;99.90;;;;;;5050991;28;20440;-72
2020/12/30 05:39:37;;;;;;;19.23;13.87;;;4.00;99.90;;;;;;5056891;28;20457;-72
2020/12/30 05:42:12;;;;;;;17.37;12.30;;;4.00;99.90;;;;;;5064684;28;20417;-72
2020/12/30 05:44:39;;;;;;;16.87;13.00;;;4.00;99.90;;;;;;5054934;28;20776;-72
2020/12/30 05:47:14;;;;;;;17.77;13.47;;;4.10;99.90;;;;;;5069563;28;20459;-72
2020/12/30 05:49:40;;;;;;;15.63;12.40;;;4.00;99.90;;;;;;5072701;28;20427;-71
2020/12/30 05:52:14;;;;;;;15.50;12.40;;;4.00;99.90;;;;;;5058118;28;20417;-72
2020/12/30 05:54:48;;;;;;;15.87;12.90;;;4.00;99.90;;;;;;5051560;28;20860;-71
2020/12/30 05:57:21;;;;;;;16.70;11.80;;;4.10;99.90;;;;;;5051007;28;20468;-71
2020/12/30 05:59:47;;;;;;;15.73;12.23;;;4.10;99.90;;;;;;5052116;28;20912;-72
2020/12/30 06:02:13;;;;;;;19.50;13.40;;;4.20;99.90;;;;;;5040200;28;20492;-73
2020/12/30 06:04:38;;;;;;;18.33;12.40;;;4.20;99.90;;;;;;5040228;28;20211;-72
2020/12/30 06:07:04;;;;;;;17.90;12.70;;;4.30;99.90;;;;;;5040822;28;20798;-73
2020/12/30 06:09:38;;;;;;;18.03;12.67;;;4.30;99.90;;;;;;5032880;28;20187;-73
2020/12/30 06:12:05;;;;;;;15.97;12.53;;;4.30;99.90;;;;;;5041092;28;20206;-72
2020/12/30 06:14:31;;;;;;;16.60;12.30;;;4.30;99.90;;;;;;5032840;28;20464;-72
2020/12/30 06:17:01;;;;;;;17.30;13.00;;;4.30;99.90;;;;;;5032857;28;20447;-73
2020/12/30 06:19:31;;;;;;;17.67;12.70;;;4.40;99.90;;;;;;5046521;28;20424;-73
2020/12/30 06:21:57;;;;;;;15.40;12.17;;;4.40;99.90;;;;;;5051923;28;20452;-73
2020/12/30 06:24:23;;;;;;;14.73;12.10;;;4.50;99.90;;;;;;5051802;28;20459;-73
2020/12/30 06:26:49;;;;;;;17.00;13.03;;;4.50;99.90;;;;;;5039018;28;20477;-72
2020/12/30 06:29:16;;;;;;;16.60;12.77;;;4.50;99.90;;;;;;5042551;28;20467;-72
2020/12/30 06:31:43;;;;;;;21.87;14.30;;;4.50;99.90;;;;;;5033428;28;20188;-72
2020/12/30 06:34:12;;;;;;;16.60;12.70;;;4.40;99.90;;;;;;5042620;28;20472;-74
2020/12/30 06:36:38;;;;;;;18.00;13.20;;;4.50;99.90;;;;;;5038093;28;20461;-73
2020/12/30 06:39:18;;;;;;;19.50;14.47;;;4.50;99.90;;;;;;5035843;28;20897;-73
2020/12/30 06:42:01;;;;;;;20.97;12.77;;;4.60;99.90;;;;;;5039937;28;20456;-72
2020/12/30 06:44:43;;;;;;;18.47;13.20;;;4.60;99.90;;;;;;5050876;28;20973;-72
2020/12/30 06:47:11;;;;;;;17.70;12.97;;;4.60;99.90;;;;;;5035126;28;20440;-73
2020/12/30 06:49:37;;;;;;;17.23;13.10;;;4.70;99.90;;;;;;5036336;28;20832;-73
2020/12/30 06:52:26;;;;;;;18.70;13.97;;;4.60;99.90;;;;;;5037165;28;20922;-73
2020/12/30 06:54:52;;;;;;;20.80;13.60;;;4.70;99.90;;;;;;5055382;28;20833;-73
2020/12/30 06:57:47;;;;;;;16.57;13.00;;;4.70;99.90;;;;;;5053789;28;20452;-73
2020/12/30 07:00:30;;;;;;;18.23;13.67;;;4.70;99.90;;;;;;5013903;28;20583;-73
2020/12/30 07:03:19;;;;;;;15.83;12.73;;;4.70;99.90;;;;;;5013906;28;20520;-73
2020/12/30 07:05:46;;;;;;;18.83;14.17;;;4.70;99.90;;;;;;5011829;28;20468;-73
2020/12/30 07:08:32;;;;;;;17.63;12.27;;;4.80;99.90;;;;;;5012801;28;20426;-73
2020/12/30 07:10:57;;;;;;;21.03;14.07;;;4.80;99.90;;;;;;5004744;28;20517;-73
2020/12/30 07:13:27;;;;;;;17.13;12.87;;;4.80;99.90;;;;;;5004706;28;20483;-72
2020/12/30 07:16:12;;;;;;;20.40;14.00;;;4.90;99.90;;;;;;5012733;28;20716;-72
2020/12/30 07:18:38;;;;;;;17.53;13.00;;;4.90;99.90;;;;;;5005903;28;20427;-73
2020/12/30 07:21:14;;;;;;;19.00;13.40;;;4.80;99.90;;;;;;5012294;28;20422;-74
2020/12/30 07:23:42;;;;;;;20.17;13.67;;;4.90;99.90;;;;;;5000525;28;20421;-73
2020/12/30 07:26:28;;;;;;;18.00;14.03;;;5.00;99.90;;;;;;5012718;28;20956;-73
2020/12/30 07:28:58;;;;;;;23.20;15.23;;;5.10;99.90;;;;;;4954558;29;20445;-73
2020/12/30 07:31:24;;;;;;;22.70;15.10;;;5.10;99.90;;;;;;4954037;28;20427;-73
2020/12/30 07:33:49;;;;;;;19.67;14.13;;;5.20;99.90;;;;;;4954286;28;20432;-73
2020/12/30 07:36:17;;;;;;;21.50;15.43;;;5.10;99.90;;;;;;4967797;28;20245;-73
2020/12/30 07:38:43;;;;;;;19.23;13.30;;;5.10;99.90;;;;;;4992140;28;20192;-73
2020/12/30 07:41:09;;;;;;;21.37;13.20;;;5.10;99.90;;;;;;4990700;28;20525;-73
2020/12/30 07:43:46;;;;;;;21.20;14.70;;;5.20;99.90;;;;;;4990084;28;20462;-73
2020/12/30 07:46:20;;;;;;;18.73;13.60;;;5.20;99.90;;;;;;4990256;28;20544;-73
2020/12/30 07:48:46;;;;;;;24.20;13.80;;;5.20;99.90;;;;;;4990502;28;20418;-73
2020/12/30 07:51:12;;;;;;;18.57;12.83;;;5.20;99.90;;;;;;4989845;28;20458;-72
2020/12/30 07:53:38;;;;;;;19.37;12.70;;;5.10;99.90;;;;;;4982252;28;20510;-73
2020/12/30 07:56:04;;;;;;;17.97;12.97;;;5.10;99.90;;;;;;4991239;28;20562;-73
2020/12/30 07:58:30;;;;;;;20.30;12.83;;;5.00;99.90;;;;;;4992351;28;20228;-73
2020/12/30 08:00:56;;;;;;;18.17;13.00;;;4.90;99.90;;;;;;4993057;28;20254;-73
2020/12/30 08:03:21;;;;;;;19.07;13.03;;;5.00;99.90;;;;;;4992663;28;20191;-72
2020/12/30 08:05:49;;;;;;;19.53;13.50;;;5.00;99.90;;;;;;5014643;28;20999;-73
2020/12/30 08:08:16;;;;;;;19.70;13.10;;;5.00;99.90;;;;;;5054024;28;20536;-73
2020/12/30 08:10:43;;;;;;;19.00;13.37;;;5.00;99.90;;;;;;5041429;28;20738;-73
2020/12/30 08:13:09;;;;;;;20.87;12.97;;;4.90;99.90;;;;;;5034296;28;20433;-74
2020/12/30 08:15:34;;;;;;;16.97;12.03;;;4.90;99.90;;;;;;5033862;28;20523;-73
2020/12/30 08:18:00;;;;;;;19.07;12.43;;;4.90;99.90;;;;;;5047446;28;20448;-73
2020/12/30 08:20:26;;;;;;;19.07;13.90;;;5.00;99.90;;;;;;5037407;28;20186;-73
2020/12/30 08:22:57;;;;;;;15.70;12.33;;;5.00;99.90;;;;;;5042051;28;20627;-73
2020/12/30 08:25:23;;;;;;;19.47;13.70;;;5.10;99.90;;;;;;5049741;28;20607;-73
2020/12/30 08:27:49;;;;;;;18.37;12.80;;;5.00;99.90;;;;;;5042435;28;20420;-73
2020/12/30 08:30:15;;;;;;;16.00;13.00;;;5.00;99.90;;;;;;5034804;28;20921;-73
2020/12/30 08:32:43;;;;;;;20.83;14.40;;;5.00;99.90;;;;;;5051918;28;20423;-72
2020/12/30 08:35:20;;;;;;;21.80;13.00;;;5.10;99.90;;;;;;5047463;28;20533;-73
2020/12/30 08:37:50;;;;;;;17.80;13.93;;;5.20;99.90;;;;;;5032986;28;20441;-73
2020/12/30 08:40:24;;;;;;;19.67;15.70;;;5.20;99.90;;;;;;5033727;28;20754;-73
2020/12/30 08:42:53;;;;;;;20.10;14.67;;;5.20;99.90;;;;;;5034090;28;20427;-72
2020/12/30 08:45:32;;;;;;;19.83;14.33;;;5.20;99.90;;;;;;5033954;28;20556;-73
2020/12/30 08:48:14;;;;;;;21.33;14.10;;;5.00;99.90;;;;;;5033880;28;20416;-73
2020/12/30 08:50:41;;;;;;;21.90;15.10;;;5.10;99.90;;;;;;5042610;28;20901;-73
2020/12/30 08:53:06;;;;;;;21.30;14.93;;;5.10;99.90;;;;;;5051086;28;20800;-73
2020/12/30 08:55:32;;;;;;;21.60;14.93;;;5.10;99.90;;;;;;5052351;28;20469;-73
2020/12/30 08:57:59;;;;;;;19.53;12.80;;;5.10;99.90;;;;;;5042144;28;20710;-73
2020/12/30 09:00:26;;;;;;;21.77;14.10;;;4.90;99.90;;;;;;5040337;28;20188;-73
2020/12/30 09:02:53;;;;;;;20.87;14.57;;;5.00;99.90;;;;;;5052871;28;20422;-73
2020/12/30 09:05:26;;;;;;;22.70;15.00;;;5.00;99.90;;;;;;5052578;28;20451;-73
2020/12/30 09:07:51;;;;;;;24.57;16.10;;;5.10;99.90;;;;;;5035234;28;20492;-73
2020/12/30 09:10:17;;;;;;;22.43;13.80;;;5.20;99.90;;;;;;5034196;28;20963;-73
2020/12/30 09:12:42;;;;;;;19.73;14.30;;;5.20;99.90;;;;;;5042284;28;20194;-73
2020/12/30 09:15:08;;;;;;;20.27;14.60;;;5.20;99.90;;;;;;5033533;28;20263;-73
2020/12/30 09:17:35;;;;;;;22.40;15.23;;;5.10;99.90;;;;;;5038395;28;20252;-73
2020/12/30 09:20:10;;;;;;;17.07;12.80;;;5.20;99.90;;;;;;5049602;28;20169;-73
2020/12/30 09:22:35;;;;;;;18.60;13.40;;;5.20;99.90;;;;;;5049941;28;20920;-73
2020/12/30 09:25:01;;;;;;;21.50;14.40;;;5.30;99.90;;;;;;5042276;28;20432;-73
2020/12/30 09:27:29;;;;;;;19.90;14.00;;;5.30;99.90;;;;;;5061220;28;20221;-73
2020/12/30 09:30:29;;;;;;;19.97;13.80;;;5.20;99.90;;;;;;5053748;28;20591;-73
2020/12/30 09:33:09;;;;;;;19.70;14.40;;;5.10;99.90;;;;;;5011686;28;20798;-73
2020/12/30 09:35:34;;;;;;;19.20;14.00;;;5.10;99.90;;;;;;5011256;28;21016;-73
2020/12/30 09:38:00;;;;;;;20.97;13.53;;;5.10;99.90;;;;;;4994777;28;20421;-73
2020/12/30 09:40:26;;;;;;;20.73;13.90;;;5.00;99.90;;;;;;5011243;28;20223;-73
2020/12/30 09:42:52;;;;;;;17.00;12.90;;;5.00;99.90;;;;;;5027020;28;20197;-73
2020/12/30 09:45:19;;;;;;;19.60;14.07;;;5.00;99.90;;;;;;5029895;28;20460;-73
2020/12/30 09:47:45;;;;;;;19.13;14.30;;;5.00;99.90;;;;;;5030640;28;20420;-73
2020/12/30 09:50:14;;;;;;;16.67;12.00;;;5.10;99.90;;;;;;5011675;28;20434;-73
2020/12/30 09:52:41;;;;;;;19.40;13.20;;;5.10;99.90;;;;;;5030125;28;21037;-73
2020/12/30 09:55:08;;;;;;;20.80;13.83;;;5.10;99.90;;;;;;5011567;28;20464;-73
2020/12/30 09:57:35;;;;;;;22.67;13.40;;;5.10;99.90;;;;;;5016071;28;20433;-73
2020/12/30 10:00:03;;;;;;;18.13;13.90;;;5.10;99.90;;;;;;5013528;28;20816;-73
2020/12/30 10:02:29;;;;;;;21.00;14.07;;;5.10;99.90;;;;;;5029869;28;20554;-73
2020/12/30 10:04:54;;;;;;;20.43;14.80;;;5.10;99.90;;;;;;5029383;28;20425;-73
2020/12/30 10:07:20;;;;;;;18.60;13.73;;;5.10;99.90;;;;;;5026613;28;20206;-73
2020/12/30 10:09:45;;;;;;;22.53;12.93;;;5.00;99.90;;;;;;5026632;28;20196;-73
2020/12/30 10:12:11;;;;;;;26.43;13.40;;;5.00;99.90;;;;;;5041839;28;20204;-73
2020/12/30 10:14:37;;;;;;;18.30;12.00;;;5.00;99.90;;;;;;5051552;28;20237;-73
2020/12/30 10:17:02;;;;;;;19.37;12.63;;;5.10;99.90;;;;;;5051593;28;20347;-73
2020/12/30 10:19:28;;;;;;;16.70;12.97;;;5.10;99.90;;;;;;5040675;28;20186;-73
2020/12/30 10:21:53;;;;;;;21.10;14.03;;;5.10;99.90;;;;;;5034795;28;20225;-73
2020/12/30 10:24:19;;;;;;;18.27;12.63;;;5.10;99.90;;;;;;5038077;28;20183;-73
2020/12/30 10:26:44;;;;;;;19.77;14.77;;;5.10;99.90;;;;;;5049875;28;20336;-73
2020/12/30 10:29:10;;;;;;;22.63;14.87;;;5.10;99.90;;;;;;5036705;28;20183;-73
2020/12/30 10:31:36;;;;;;;19.97;13.70;;;5.10;99.90;;;;;;5039333;28;20650;-73
2020/12/30 10:34:02;;;;;;;18.53;13.87;;;5.10;99.90;;;;;;5048306;28;20437;-73
2020/12/30 10:36:32;;;;;;;22.50;14.10;;;5.10;99.90;;;;;;5055517;28;20212;-73
2020/12/30 10:38:59;;;;;;;20.43;13.30;;;5.10;99.90;;;;;;5049101;28;20167;-74
2020/12/30 10:41:25;;;;;;;20.60;13.97;;;5.10;99.90;;;;;;5036291;28;20420;-74
2020/12/30 10:43:51;;;;;;;22.03;15.10;;;5.10;99.90;;;;;;5035688;28;20443;-73
2020/12/30 10:46:17;;;;;;;19.93;14.20;;;5.10;99.90;;;;;;5044831;28;20233;-74
2020/12/30 10:48:44;;;;;;;18.80;13.60;;;5.10;99.90;;;;;;5055725;28;20181;-74
2020/12/30 10:51:10;;;;;;;18.10;12.80;;;5.10;99.90;;;;;;5039959;28;20494;-73
2020/12/30 10:53:36;;;;;;;19.33;13.83;;;5.20;99.90;;;;;;5046843;28;20424;-73
2020/12/30 10:56:01;;;;;;;19.90;13.73;;;5.20;99.90;;;;;;5055051;28;20487;-73
2020/12/30 10:58:29;;;;;;;19.60;13.33;;;5.20;99.90;;;;;;5053399;28;20174;-73
2020/12/30 11:00:55;;;;;;;20.03;13.63;;;5.30;99.90;;;;;;5036075;28;20209;-74
2020/12/30 11:03:21;;;;;;;18.80;14.23;;;5.30;99.90;;;;;;5036653;28;20453;-73
2020/12/30 11:05:46;;;;;;;18.77;13.13;;;5.30;99.90;;;;;;5035588;28;20577;-73
2020/12/30 11:08:12;;;;;;;18.17;13.30;;;5.30;99.90;;;;;;5035726;28;20652;-73
2020/12/30 11:10:37;;;;;;;18.87;13.63;;;5.40;99.90;;;;;;5051815;28;20243;-73
2020/12/30 11:13:03;;;;;;;20.80;13.47;;;5.40;99.90;;;;;;5035741;28;20191;-74
2020/12/30 11:15:28;;;;;;;20.03;12.83;;;5.30;99.90;;;;;;5044497;28;20210;-74
2020/12/30 11:17:54;;;;;;;18.83;11.90;;;5.40;99.90;;;;;;5055371;28;20188;-73
2020/12/30 11:20:19;;;;;;;18.87;11.57;;;5.30;99.90;;;;;;5047567;28;20228;-74
2020/12/30 11:22:44;;;;;;;21.70;13.57;;;5.40;99.90;;;;;;5038704;28;20174;-73
2020/12/30 11:25:10;;;;;;;19.20;13.50;;;5.40;99.90;;;;;;5054554;28;20225;-74
2020/12/30 11:27:36;;;;;;;20.37;13.90;;;5.40;99.90;;;;;;5054348;28;20182;-73
2020/12/30 11:30:01;;;;;;;20.50;12.40;;;5.40;99.90;;;;;;5049882;28;20313;-73
2020/12/30 11:32:27;;;;;;;21.00;13.83;;;5.30;99.90;;;;;;5034828;28;20254;-73
2020/12/30 11:34:52;;;;;;;18.03;12.53;;;5.40;99.90;;;;;;5036809;28;20285;-73
2020/12/30 11:37:18;;;;;;;18.47;12.53;;;5.50;99.90;;;;;;5043082;28;20205;-73
2020/12/30 11:39:43;;;;;;;20.50;13.43;;;5.40;99.90;;;;;;5053635;28;20170;-73
2020/12/30 11:42:09;;;;;;;18.93;13.20;;;5.40;99.90;;;;;;5054444;28;20189;-73
2020/12/30 11:44:35;;;;;;;20.23;13.67;;;5.40;99.90;;;;;;5045370;28;20182;-73
2020/12/30 11:47:01;;;;;;;16.17;12.80;;;5.30;99.90;;;;;;5035281;28;20202;-74
2020/12/30 11:49:27;;;;;;;20.23;12.60;;;5.40;99.90;;;;;;5042523;28;20440;-74
2020/12/30 11:51:53;;;;;;;20.63;13.43;;;5.50;99.90;;;;;;5043239;28;20171;-74
2020/12/30 11:54:19;;;;;;;15.93;12.50;;;5.50;99.90;;;;;;5033375;28;20437;-73
2020/12/30 11:56:44;;;;;;;22.87;14.30;;;5.50;99.90;;;;;;5035190;28;20229;-74
2020/12/30 11:59:10;;;;;;;20.23;13.70;;;5.60;99.90;;;;;;5035266;28;20429;-74
2020/12/30 12:01:35;;;;;;;20.07;12.10;;;5.60;99.90;;;;;;5033760;28;20179;-74
2020/12/30 12:04:02;;;;;;;17.50;12.40;;;5.60;99.90;;;;;;5034905;28;20249;-73
2020/12/30 12:06:28;;;;;;;18.40;11.67;;;5.60;99.90;;;;;;5049547;28;20553;-73
2020/12/30 12:08:54;;;;;;;16.97;12.53;;;5.60;99.90;;;;;;5053945;28;20433;-76
2020/12/30 12:11:20;;;;;;;19.10;13.00;;;5.60;99.90;;;;;;5054565;28;20178;-74
2020/12/30 12:13:46;;;;;;;16.67;11.20;;;5.60;99.90;;;;;;5036519;28;21078;-73
2020/12/30 12:16:12;;;;;;;16.40;12.10;;;5.60;99.90;;;;;;5034690;28;20479;-74
2020/12/30 12:18:38;;;;;;;16.00;11.73;;;5.60;99.90;;;;;;5034511;28;20220;-74
2020/12/30 12:21:04;;;;;;;22.10;12.93;;;5.60;99.90;;;;;;5045996;28;20412;-74
2020/12/30 12:23:30;;;;;;;17.60;11.80;;;5.60;99.90;;;;;;5047173;28;20203;-74
2020/12/30 12:25:56;;;;;;;17.67;11.87;;;5.70;99.90;;;;;;5035816;28;20478;-73
2020/12/30 12:28:43;;;;;;;16.67;11.10;;;5.60;99.90;;;;;;5054282;28;20205;-74
2020/12/30 12:31:14;;;;;;;19.33;12.43;;;5.60;99.90;;;;;;5054412;28;20531;-74
2020/12/30 12:33:40;;;;;;;18.90;11.80;;;5.60;99.90;;;;;;5045238;28;20923;-73
2020/12/30 12:36:12;;;;;;;16.50;11.90;;;5.50;99.90;;;;;;5042245;28;20473;-74
2020/12/30 12:38:38;;;;;;;16.03;11.90;;;5.50;99.90;;;;;;5034172;28;20286;-73
2020/12/30 12:41:04;;;;;;;19.30;13.03;;;5.50;99.90;;;;;;5034827;28;20449;-73
2020/12/30 12:43:29;;;;;;;17.23;12.07;;;5.50;99.90;;;;;;5033619;28;20209;-73